Pine View, North Carolina
Current Conditions -  °F | °C
As of 11:15 PM on Sunday 23 Nov 2014 (Local Time) from KTTA Reporting Station
Moderate Rain Moderate Rain  
Wind Chill: 64°   Ceiling: 700
Heat Index: 64°   Visibility: 10mi
Dew Point: 64°   Wind: 6mph
Humidity: 100%   Direction: 130°SE
Pressure: 29.76"   Gusts: NA
Location:  35.493°N, 79.1765°W
Report Text: KTTA 240415Z AUTO 13005KT 10SM RA BKN007 OVC012 18/18 A2976 RMK AO2 T01780178
Loading
Personal Weather Stations






























Interactive Weather Map New forecast layout! Learn more

10-Day Weather Forecast

Advertisements
Track Severe Weather on mobile